Time;durP1;ratioP1;P1;durP2;ratioP2;P2;SDS_P1;SDS_P2;PMS_P1;PMS_P2;Temp;Humidity;BMP_temperature;BMP_pressure;BME280_temperature;BME280_humidity;BME280_pressure;Samples;Min_cycle;Max_cycle;Signal;HPM_P1;HPM_P2
2023/10/04 00:00:36;;;;;;;3.43;3.07;;;;;;;-146.25;100.00;57403.91;4934604;29;20204;-84
2023/10/04 00:03:04;;;;;;;5.57;3.37;;;;;;;-146.25;100.00;57403.91;4935689;29;20201;-84
2023/10/04 00:05:34;;;;;;;3.97;2.97;;;;;;;-146.25;100.00;57403.91;4936528;29;20199;-83
2023/10/04 00:08:01;;;;;;;7.63;3.60;;;;;;;-146.25;100.00;57403.91;4936330;29;20728;-83
2023/10/04 00:10:29;;;;;;;5.20;2.93;;;;;;;-146.25;100.00;57403.91;4936737;29;20206;-84
2023/10/04 00:12:56;;;;;;;3.30;3.00;;;;;;;-146.25;100.00;57403.91;4937860;29;20212;-84
2023/10/04 00:15:25;;;;;;;15.43;3.50;;;;;;;-146.25;100.00;57403.91;4937263;29;20539;-85
2023/10/04 00:17:53;;;;;;;6.20;3.40;;;;;;;-146.25;100.00;57403.91;4936787;29;20615;-85
2023/10/04 00:20:21;;;;;;;7.00;3.47;;;;;;;-146.25;100.00;57403.91;4935726;29;20230;-85
2023/10/04 00:22:51;;;;;;;6.03;3.00;;;;;;;-146.25;100.00;57403.91;4936379;29;20205;-85
2023/10/04 00:25:21;;;;;;;2.83;2.63;;;;;;;-146.25;100.00;57403.91;4934712;29;20203;-85
2023/10/04 00:27:50;;;;;;;5.20;3.80;;;;;;;-146.25;100.00;57403.91;4935300;29;20222;-85
2023/10/04 00:30:18;;;;;;;4.60;3.37;;;;;;;-146.25;100.00;57403.91;4936259;29;20673;-85
2023/10/04 00:32:46;;;;;;;4.53;3.20;;;;;;;-146.25;100.00;57403.91;4937769;29;20680;-85
2023/10/04 00:35:19;;;;;;;9.30;3.17;;;;;;;-146.25;100.00;57403.91;4935916;29;20727;-84
2023/10/04 00:37:51;;;;;;;6.90;3.53;;;;;;;-146.25;100.00;57403.91;4936726;29;20222;-84
2023/10/04 00:40:24;;;;;;;3.97;3.47;;;;;;;-146.25;100.00;57403.91;4935039;29;20234;-84
2023/10/04 00:42:54;;;;;;;4.50;3.47;;;;;;;-146.25;100.00;57403.91;4935302;29;20219;-84
2023/10/04 00:45:22;;;;;;;3.67;3.30;;;;;;;-146.25;100.00;57403.91;4935097;29;20218;-84
2023/10/04 00:47:52;;;;;;;17.43;8.47;;;;;;;-146.25;100.00;57403.91;4934921;29;20326;-85
2023/10/04 00:50:25;;;;;;;29.50;13.10;;;;;;;-146.25;100.00;57403.91;4934822;29;20242;-85
2023/10/04 00:52:57;;;;;;;3.80;3.00;;;;;;;-146.25;100.00;57403.91;4934937;29;20226;-84
2023/10/04 00:55:26;;;;;;;11.80;4.33;;;;;;;-146.25;100.00;57403.91;4934499;29;20241;-84
2023/10/04 00:57:55;;;;;;;5.73;3.27;;;;;;;-146.25;100.00;57403.91;4934575;29;20209;-85
2023/10/04 01:00:23;;;;;;;8.97;3.67;;;;;;;-146.25;100.00;57403.91;4934492;29;20198;-85
2023/10/04 01:02:52;;;;;;;3.43;3.03;;;;;;;-146.25;100.00;57403.91;4935865;29;20203;-86
2023/10/04 01:05:22;;;;;;;4.33;3.40;;;;;;;-146.25;100.00;57403.91;4918898;29;20681;-84
2023/10/04 01:07:49;;;;;;;11.80;3.87;;;;;;;-146.25;100.00;57403.91;4919186;29;20396;-85
2023/10/04 01:10:20;;;;;;;8.80;3.90;;;;;;;-146.25;100.00;57403.91;4919551;29;20215;-84
2023/10/04 01:12:51;;;;;;;6.23;3.37;;;;;;;-146.25;100.00;57403.91;4919408;29;20277;-85
2023/10/04 01:15:30;;;;;;;8.37;3.13;;;;;;;-146.25;100.00;57403.91;4919504;29;20235;-84
2023/10/04 01:17:58;;;;;;;4.83;3.80;;;;;;;-146.25;100.00;57403.91;4920153;29;20230;-85
2023/10/04 01:20:27;;;;;;;10.87;3.90;;;;;;;-146.25;100.00;57403.91;4919834;29;20267;-83
2023/10/04 01:23:00;;;;;;;3.50;2.80;;;;;;;-146.25;100.00;57403.91;4919232;29;20207;-85
2023/10/04 01:25:29;;;;;;;8.70;2.90;;;;;;;-146.25;100.00;57403.91;4919059;29;20745;-83
2023/10/04 01:27:56;;;;;;;6.23;3.80;;;;;;;-146.25;100.00;57403.91;4918448;29;20222;-85
2023/10/04 01:30:24;;;;;;;7.20;3.10;;;;;;;-146.25;100.00;57403.91;4919118;29;20685;-84
2023/10/04 01:32:52;;;;;;;8.63;3.30;;;;;;;-146.25;100.00;57403.91;4919282;29;20697;-85
2023/10/04 01:35:23;;;;;;;7.37;3.70;;;;;;;-146.25;100.00;57403.91;4919516;29;20291;-85
2023/10/04 01:37:51;;;;;;;3.93;2.67;;;;;;;-146.25;100.00;57403.91;4923879;29;20204;-85
2023/10/04 01:40:25;;;;;;;6.20;3.10;;;;;;;-146.25;100.00;57403.91;4920860;29;20203;-85
2023/10/04 01:42:55;;;;;;;4.67;3.70;;;;;;;-146.25;100.00;57403.91;4918254;29;20643;-85
2023/10/04 01:45:23;;;;;;;5.30;2.93;;;;;;;-146.25;100.00;57403.91;4920899;29;20211;-86
2023/10/04 01:47:51;;;;;;;3.63;3.17;;;;;;;-146.25;100.00;57403.91;4920363;29;20208;-86
2023/10/04 01:50:19;;;;;;;6.23;3.00;;;;;;;-146.25;100.00;57403.91;4919082;29;20234;-85
2023/10/04 01:52:48;;;;;;;6.30;3.07;;;;;;;-146.25;100.00;57403.91;4916926;29;20232;-85
2023/10/04 01:55:17;;;;;;;5.20;3.00;;;;;;;-146.25;100.00;57403.91;4918379;29;20223;-85
2023/10/04 01:57:45;;;;;;;6.70;4.20;;;;;;;-146.25;100.00;57403.91;4919105;29;20214;-85
2023/10/04 02:00:18;;;;;;;9.93;4.23;;;;;;;-146.25;100.00;57403.91;4920082;29;20212;-85
2023/10/04 02:02:46;;;;;;;7.20;4.07;;;;;;;-146.25;100.00;57403.91;4921254;29;20299;-82
2023/10/04 02:05:26;;;;;;;6.10;3.80;;;;;;;-146.25;100.00;57403.91;4943041;29;20318;-86
2023/10/04 02:07:54;;;;;;;6.33;4.00;;;;;;;-146.25;100.00;57403.91;4941183;29;20211;-85
2023/10/04 02:10:21;;;;;;;4.90;3.70;;;;;;;-146.25;100.00;57403.91;4938638;29;20207;-84
2023/10/04 02:12:53;;;;;;;3.53;3.23;;;;;;;-146.25;100.00;57403.91;4938195;29;20688;-84
2023/10/04 02:15:20;;;;;;;9.63;4.93;;;;;;;-146.25;100.00;57403.91;4940391;29;20231;-86
2023/10/04 02:17:53;;;;;;;7.40;4.23;;;;;;;-146.25;100.00;57403.91;4942178;29;20298;-83
2023/10/04 02:20:23;;;;;;;7.50;3.97;;;;;;;-146.25;100.00;57403.91;4941773;29;20207;-84
2023/10/04 02:22:50;;;;;;;4.40;3.37;;;;;;;-146.25;100.00;57403.91;4936708;29;20263;-86
2023/10/04 02:25:19;;;;;;;5.33;3.50;;;;;;;-146.25;100.00;57403.91;4936363;29;20216;-85
2023/10/04 02:27:49;;;;;;;5.83;3.70;;;;;;;-146.25;100.00;57403.91;4937108;29;20716;-85
2023/10/04 02:30:21;;;;;;;7.63;3.90;;;;;;;-146.25;100.00;57403.91;4937201;29;20215;-85
2023/10/04 02:32:50;;;;;;;7.07;3.87;;;;;;;-146.25;100.00;57403.91;4936198;29;20234;-85
2023/10/04 02:35:26;;;;;;;19.10;5.20;;;;;;;-146.25;100.00;57403.91;4940289;29;20270;-86
2023/10/04 02:37:58;;;;;;;5.00;3.63;;;;;;;-146.25;100.00;57403.91;4954323;29;20229;-86
2023/10/04 02:40:27;;;;;;;5.83;3.70;;;;;;;-146.25;100.00;57403.91;4955420;29;20206;-85
2023/10/04 02:42:57;;;;;;;4.57;4.17;;;;;;;-146.25;100.00;57403.91;4955495;29;20703;-84
2023/10/04 02:45:29;;;;;;;5.73;4.50;;;;;;;-146.25;100.00;57403.91;4955904;29;20261;-84
2023/10/04 02:47:56;;;;;;;4.87;2.90;;;;;;;-146.25;100.00;57403.91;4955681;29;20218;-85
2023/10/04 02:50:24;;;;;;;5.80;4.20;;;;;;;-146.25;100.00;57403.91;4955211;29;20602;-84
2023/10/04 02:52:52;;;;;;;7.07;3.50;;;;;;;-146.25;100.00;57403.91;4955966;29;20198;-85
2023/10/04 02:55:20;;;;;;;7.47;4.00;;;;;;;-146.25;100.00;57403.91;4955233;29;20325;-84
2023/10/04 02:57:50;;;;;;;6.17;3.70;;;;;;;-146.25;100.00;57403.91;4956713;29;20229;-84
2023/10/04 03:00:19;;;;;;;10.37;4.57;;;;;;;-146.25;100.00;57403.91;4958944;29;20575;-84
2023/10/04 03:02:50;;;;;;;6.37;3.87;;;;;;;-146.25;100.00;57403.91;4959419;29;20242;-86
2023/10/04 03:05:19;;;;;;;8.83;3.77;;;;;;;-146.25;100.00;57403.91;4958844;29;20321;-86
2023/10/04 03:07:49;;;;;;;8.87;3.30;;;;;;;-146.25;100.00;57403.91;4955048;29;20234;-85
2023/10/04 03:10:23;;;;;;;4.47;3.47;;;;;;;-146.25;100.00;57403.91;4955340;29;20610;-85
2023/10/04 03:12:52;;;;;;;7.30;3.70;;;;;;;-146.25;100.00;57403.91;4956270;29;20206;-84
2023/10/04 03:15:23;;;;;;;10.13;4.27;;;;;;;-146.25;100.00;57403.91;4955760;29;20326;-85
2023/10/04 03:17:52;;;;;;;9.80;4.47;;;;;;;-146.25;100.00;57403.91;4956332;29;20535;-85
2023/10/04 03:20:21;;;;;;;8.60;3.60;;;;;;;-146.25;100.00;57403.91;4958001;29;20230;-85
2023/10/04 03:22:50;;;;;;;5.10;3.80;;;;;;;-146.25;100.00;57403.91;4957024;29;20203;-86
2023/10/04 03:25:18;;;;;;;6.87;3.50;;;;;;;-146.25;100.00;57403.91;4954371;28;20665;-85
2023/10/04 03:27:46;;;;;;;12.83;4.37;;;;;;;-146.25;100.00;57403.91;4957022;29;20201;-85
2023/10/04 03:30:15;;;;;;;7.30;3.60;;;;;;;-146.25;100.00;57403.91;4955238;29;20266;-85
2023/10/04 03:32:50;;;;;;;4.50;3.13;;;;;;;-146.25;100.00;57403.91;4955594;29;20215;-85
2023/10/04 03:35:21;;;;;;;5.60;3.90;;;;;;;-146.25;100.00;57403.91;4954526;29;20676;-84
2023/10/04 03:37:54;;;;;;;5.37;3.60;;;;;;;-146.25;100.00;57403.91;4954881;29;20217;-85
2023/10/04 03:40:22;;;;;;;5.60;3.60;;;;;;;-146.25;100.00;57403.91;4954708;29;20202;-85
2023/10/04 03:42:50;;;;;;;7.57;4.63;;;;;;;-146.25;100.00;57403.91;4954791;29;20229;-84
2023/10/04 03:45:20;;;;;;;4.50;3.20;;;;;;;-146.25;100.00;57403.91;4954032;29;20261;-85
2023/10/04 03:47:50;;;;;;;10.07;3.63;;;;;;;-146.25;100.00;57403.91;4955993;29;20226;-85
2023/10/04 03:50:19;;;;;;;39.57;17.13;;;;;;;-146.25;100.00;57403.91;4955770;29;20206;-85
2023/10/04 03:52:48;;;;;;;9.73;4.00;;;;;;;-146.25;100.00;57403.91;4955339;29;20715;-85
2023/10/04 03:55:15;;;;;;;6.93;4.10;;;;;;;-146.25;100.00;57403.91;4954844;29;20218;-85
2023/10/04 03:57:43;;;;;;;7.03;4.43;;;;;;;-146.25;100.00;57403.91;4954818;29;20203;-85
2023/10/04 04:00:14;;;;;;;4.50;3.47;;;;;;;-146.25;100.00;57403.91;4954909;29;20202;-84
2023/10/04 04:02:41;;;;;;;6.60;3.43;;;;;;;-146.25;100.00;57403.91;4955793;29;20230;-85
2023/10/04 04:05:11;;;;;;;3.67;3.33;;;;;;;-146.25;100.00;57403.91;4954248;28;20246;-84
2023/10/04 04:07:40;;;;;;;14.27;4.70;;;;;;;-146.25;100.00;57403.91;4954951;29;20209;-86
2023/10/04 04:10:09;;;;;;;4.40;3.90;;;;;;;-146.25;100.00;57403.91;4954674;29;20249;-85
2023/10/04 04:12:37;;;;;;;7.73;4.50;;;;;;;-146.25;100.00;57403.91;4954678;29;20203;-85
2023/10/04 04:15:08;;;;;;;5.33;3.67;;;;;;;-146.25;100.00;57403.91;4953745;29;20309;-84
2023/10/04 04:17:37;;;;;;;18.40;4.00;;;;;;;-146.25;100.00;57403.91;4954207;29;20214;-86
2023/10/04 04:20:14;;;;;;;4.13;3.73;;;;;;;-146.25;100.00;57403.91;4953462;29;20591;-85
2023/10/04 04:22:45;;;;;;;5.00;3.77;;;;;;;-146.25;100.00;57403.91;4954229;29;20273;-84
2023/10/04 04:25:15;;;;;;;4.87;4.03;;;;;;;-146.25;100.00;57403.91;4960539;29;20233;-83
2023/10/04 04:27:47;;;;;;;8.70;4.37;;;;;;;-146.25;100.00;57403.91;4957121;29;20218;-84
2023/10/04 04:30:19;;;;;;;11.83;4.10;;;;;;;-146.25;100.00;57403.91;4953707;29;20555;-84
2023/10/04 04:32:49;;;;;;;6.40;4.23;;;;;;;-146.25;100.00;57403.91;4953849;29;20191;-84
2023/10/04 04:35:34;;;;;;;14.60;4.80;;;;;;;-146.25;100.00;57403.91;4953426;29;20632;-85
2023/10/04 04:38:13;;;;;;;10.07;4.83;;;;;;;-146.25;100.00;57403.91;4954909;28;20242;-85
2023/10/04 04:40:44;;;;;;;6.53;3.90;;;;;;;-146.25;100.00;57403.91;4954014;29;20297;-85
2023/10/04 04:43:36;;;;;;;12.67;5.23;;;;;;;-146.25;100.00;57403.91;4953444;29;20198;-85
2023/10/04 04:46:07;;;;;;;12.93;5.10;;;;;;;-146.25;100.00;57403.91;4954193;29;20646;-84
2023/10/04 04:48:37;;;;;;;12.63;6.60;;;;;;;-146.25;100.00;57403.91;4954566;29;20223;-85
2023/10/04 04:51:10;;;;;;;12.37;6.97;;;;;;;-146.25;100.00;57403.91;4954451;29;20230;-84
2023/10/04 04:53:40;;;;;;;11.93;6.33;;;;;;;-146.25;100.00;57403.91;4953768;29;20207;-83
2023/10/04 04:56:12;;;;;;;11.43;4.90;;;;;;;-146.25;100.00;57403.91;4953345;29;20259;-85
2023/10/04 04:58:39;;;;;;;7.23;5.23;;;;;;;-146.25;100.00;57403.91;4953779;29;20245;-84
2023/10/04 05:01:11;;;;;;;12.20;6.10;;;;;;;-146.25;100.00;57403.91;4952692;29;20195;-84
2023/10/04 05:03:41;;;;;;;12.57;7.10;;;;;;;-146.25;100.00;57403.91;4952929;28;20643;-84
2023/10/04 05:06:13;;;;;;;8.23;6.27;;;;;;;-146.25;100.00;57403.91;4952910;29;20588;-85
2023/10/04 05:08:42;;;;;;;14.03;6.13;;;;;;;-146.25;100.00;57403.91;4952744;29;20211;-85
2023/10/04 05:11:10;;;;;;;11.90;5.85;;;;;;;-146.25;100.00;57403.91;4953322;29;20275;-84
2023/10/04 05:13:37;;;;;;;13.68;6.38;;;;;;;-146.25;100.00;57403.91;4953257;29;20292;-84
2023/10/04 05:16:07;;;;;;;9.32;6.40;;;;;;;-146.25;100.00;57403.91;4952657;29;20319;-84
2023/10/04 05:18:37;;;;;;;9.50;7.05;;;;;;;-146.25;100.00;57403.91;4953427;29;20215;-85
2023/10/04 05:21:05;;;;;;;14.48;6.20;;;;;;;-146.25;100.00;57403.91;4953712;29;20198;-85
2023/10/04 05:23:35;;;;;;;9.88;6.80;;;;;;;-146.25;100.00;57403.91;4953220;29;20261;-85
2023/10/04 05:26:04;;;;;;;15.20;6.25;;;;;;;-146.25;100.00;57403.91;4925379;29;20224;-85
2023/10/04 05:28:33;;;;;;;7.63;6.63;;;;;;;-146.25;100.00;57403.91;4952591;29;20222;-85
2023/10/04 05:31:00;;;;;;;14.93;6.38;;;;;;;-146.25;100.00;57403.91;4947667;29;20259;-83
2023/10/04 05:33:27;;;;;;;12.18;7.78;;;;;;;-146.25;100.00;57403.91;4946028;29;20654;-84
2023/10/04 05:35:56;;;;;;;12.95;9.27;;;;;;;-146.25;100.00;57403.91;4951175;29;20239;-83
2023/10/04 05:38:26;;;;;;;16.15;9.27;;;;;;;-146.25;100.00;57403.91;4941551;29;20735;-82
2023/10/04 05:40:55;;;;;;;20.63;12.27;;;;;;;-146.25;100.00;57403.91;4953206;29;20298;-84
2023/10/04 05:43:30;;;;;;;10.02;6.55;;;;;;;-146.25;100.00;57403.91;4954886;29;20286;-84
2023/10/04 05:45:57;;;;;;;12.65;7.10;;;;;;;-146.25;100.00;57403.91;4953415;29;20210;-84
2023/10/04 05:48:26;;;;;;;21.08;11.55;;;;;;;-146.25;100.00;57403.91;4954035;28;20233;-84
2023/10/04 05:50:55;;;;;;;24.65;13.75;;;;;;;-146.25;100.00;57403.91;4957069;29;20230;-85
2023/10/04 05:53:26;;;;;;;15.30;7.20;;;;;;;-146.25;100.00;57403.91;4956085;29;20237;-86
2023/10/04 05:55:54;;;;;;;10.77;6.93;;;;;;;-146.25;100.00;57403.91;4956132;29;20199;-84
2023/10/04 05:58:22;;;;;;;14.02;7.70;;;;;;;-146.25;100.00;57403.91;4957416;29;20225;-84
2023/10/04 06:00:56;;;;;;;14.35;9.23;;;;;;;-146.25;100.00;57403.91;4956390;29;20201;-84
2023/10/04 06:03:24;;;;;;;9.55;6.95;;;;;;;-146.25;100.00;57403.91;4956187;28;20257;-84
2023/10/04 06:05:52;;;;;;;13.07;8.13;;;;;;;-146.25;100.00;57403.91;4957013;29;20672;-85
2023/10/04 06:08:22;;;;;;;14.23;7.30;;;;;;;-146.25;100.00;57403.91;4959128;29;20203;-87
2023/10/04 06:10:50;;;;;;;9.40;7.55;;;;;;;-146.25;100.00;57403.91;4943577;28;20299;-84
2023/10/04 06:13:22;;;;;;;15.60;10.48;;;;;;;-146.25;100.00;57403.91;4938315;29;20227;-85
2023/10/04 06:15:53;;;;;;;11.85;8.20;;;;;;;-146.25;100.00;57403.91;4926262;29;20230;-85
2023/10/04 06:18:22;;;;;;;17.98;9.05;;;;;;;-146.25;100.00;57403.91;4937563;28;20231;-86
2023/10/04 06:20:49;;;;;;;13.77;9.60;;;;;;;-146.25;100.00;57403.91;4937904;28;20292;-85
2023/10/04 06:23:19;;;;;;;10.93;7.60;;;;;;;-146.25;100.00;57403.91;4926088;29;20208;-86
2023/10/04 06:25:48;;;;;;;9.68;7.82;;;;;;;-146.25;100.00;57403.91;4937552;28;20211;-85
2023/10/04 06:28:16;;;;;;;16.95;8.60;;;;;;;-146.25;100.00;57403.91;4937797;29;20203;-84
2023/10/04 06:30:45;;;;;;;12.05;8.30;;;;;;;-146.25;100.00;57403.91;4938151;29;20196;-85
2023/10/04 06:33:15;;;;;;;16.02;8.57;;;;;;;-146.25;100.00;57403.91;4939619;28;20232;-88
2023/10/04 06:35:43;;;;;;;11.85;7.40;;;;;;;-146.25;100.00;57403.91;4942638;28;20286;-88
2023/10/04 06:38:11;;;;;;;10.68;7.45;;;;;;;-146.25;100.00;57403.91;4942252;29;20247;-89
2023/10/04 06:40:42;;;;;;;17.50;9.85;;;;;;;-146.25;100.00;57403.91;4943182;28;20224;-88
2023/10/04 06:43:10;;;;;;;18.85;7.55;;;;;;;-146.25;100.00;57403.91;4943818;29;20208;-87
2023/10/04 06:45:39;;;;;;;22.50;7.55;;;;;;;-146.25;100.00;57403.91;4941791;29;20601;-88
2023/10/04 06:48:07;;;;;;;15.43;7.63;;;;;;;-146.25;100.00;57403.91;4942427;28;20208;-87
2023/10/04 06:50:39;;;;;;;13.38;8.00;;;;;;;-146.25;100.00;57403.91;4941827;29;20228;-87
2023/10/04 06:53:08;;;;;;;24.92;10.57;;;;;;;-146.25;100.00;57403.91;4938875;29;20211;-85
2023/10/04 06:55:37;;;;;;;19.27;7.85;;;;;;;-146.25;100.00;57403.91;4942808;29;20218;-85
2023/10/04 06:58:06;;;;;;;20.77;11.38;;;;;;;-146.25;100.00;57403.91;4938419;29;20266;-86
2023/10/04 07:00:36;;;;;;;14.57;7.57;;;;;;;-146.25;100.00;57403.91;4923669;29;20316;-85
2023/10/04 07:03:05;;;;;;;12.23;7.63;;;;;;;-146.25;100.00;57403.91;4935653;29;20231;-85
2023/10/04 07:05:36;;;;;;;11.50;8.25;;;;;;;-146.25;100.00;57403.91;4936401;29;20270;-85
2023/10/04 07:08:05;;;;;;;15.27;8.60;;;;;;;-146.25;100.00;57403.91;4924927;29;20267;-85
2023/10/04 07:10:33;;;;;;;12.57;8.18;;;;;;;-146.25;100.00;57403.91;4940574;29;20231;-84
2023/10/04 07:13:02;;;;;;;11.27;8.25;;;;;;;-146.25;100.00;57403.91;4950150;29;20245;-82
2023/10/04 07:15:35;;;;;;;21.98;7.63;;;;;;;-146.25;100.00;57403.91;4951742;29;20643;-83
2023/10/04 07:18:06;;;;;;;12.10;8.50;;;;;;;-146.25;100.00;57403.91;4941656;29;20246;-85
2023/10/04 07:20:36;;;;;;;11.10;8.07;;;;;;;-146.25;100.00;57403.91;4937862;29;20263;-86
2023/10/04 07:23:07;;;;;;;14.32;7.70;;;;;;;-146.25;100.00;57403.91;4937688;29;20322;-86
2023/10/04 07:25:37;;;;;;;11.93;7.65;;;;;;;-146.25;100.00;57403.91;4936348;29;20219;-85
2023/10/04 07:28:09;;;;;;;14.90;8.35;;;;;;;-146.25;100.00;57403.91;4935942;29;20549;-86
2023/10/04 07:30:39;;;;;;;9.10;7.55;;;;;;;-146.25;100.00;57403.91;4935483;29;20235;-86
2023/10/04 07:33:07;;;;;;;20.52;7.45;;;;;;;-146.25;100.00;57403.91;4934296;29;20223;-85
2023/10/04 07:35:36;;;;;;;11.63;6.85;;;;;;;-146.25;100.00;57403.91;4934725;29;20653;-85
2023/10/04 07:38:05;;;;;;;13.18;6.80;;;;;;;-146.25;100.00;57403.91;4934031;29;20257;-86
2023/10/04 07:40:33;;;;;;;12.40;7.68;;;;;;;-146.25;100.00;57403.91;4934903;29;20243;-84
2023/10/04 07:43:01;;;;;;;20.25;7.03;;;;;;;-146.25;100.00;57403.91;4938482;29;20231;-85
2023/10/04 07:45:32;;;;;;;21.48;9.00;;;;;;;-146.25;100.00;57403.91;4939240;29;20615;-83
2023/10/04 07:48:00;;;;;;;16.08;8.43;;;;;;;-146.25;100.00;57403.91;4942432;29;20413;-84
2023/10/04 07:50:28;;;;;;;13.65;7.68;;;;;;;-146.25;100.00;57403.91;4934913;29;20704;-84
2023/10/04 07:52:59;;;;;;;8.85;7.13;;;;;;;-146.25;100.00;57403.91;4934222;29;20247;-85
2023/10/04 07:55:26;;;;;;;14.60;7.95;;;;;;;-146.25;100.00;57403.91;4934133;29;20231;-85
2023/10/04 07:57:58;;;;;;;10.88;7.40;;;;;;;-146.25;100.00;57403.91;4933188;29;20231;-85
2023/10/04 08:00:26;;;;;;;14.52;7.70;;;;;;;-146.25;100.00;57403.91;4934198;29;20239;-84
2023/10/04 08:02:53;;;;;;;10.63;7.40;;;;;;;-146.25;100.00;57403.91;4932440;29;20301;-83
2023/10/04 08:05:23;;;;;;;14.13;8.00;;;;;;;-146.25;100.00;57403.91;4914424;29;20720;-85
2023/10/04 08:07:52;;;;;;;12.32;8.00;;;;;;;-146.25;100.00;57403.91;4914212;29;20266;-84
2023/10/04 08:10:23;;;;;;;15.40;8.05;;;;;;;-146.25;100.00;57403.91;4914371;29;20226;-85
2023/10/04 08:12:55;;;;;;;14.05;7.85;;;;;;;-146.25;100.00;57403.91;4914787;29;20709;-85
2023/10/04 08:15:25;;;;;;;11.73;7.53;;;;;;;-146.25;100.00;57403.91;4914380;29;20697;-84
2023/10/04 08:17:53;;;;;;;15.40;8.48;;;;;;;-146.25;100.00;57403.91;4913727;29;20262;-85
2023/10/04 08:20:22;;;;;;;10.77;7.22;;;;;;;-146.25;100.00;57403.91;4914402;29;20220;-86
2023/10/04 08:22:50;;;;;;;14.07;8.73;;;;;;;-146.25;100.00;57403.91;4914285;29;20228;-85
2023/10/04 08:25:20;;;;;;;12.52;7.88;;;;;;;-146.25;100.00;57403.91;4915963;29;20748;-84
2023/10/04 08:27:49;;;;;;;20.90;7.60;;;;;;;-146.25;100.00;57403.91;4914583;29;20232;-85
2023/10/04 08:30:18;;;;;;;9.60;7.57;;;;;;;-146.25;100.00;57403.91;4914455;29;20224;-86
2023/10/04 08:32:54;;;;;;;12.38;7.35;;;;;;;-146.25;100.00;57403.91;4913464;29;20224;-83
2023/10/04 08:35:24;;;;;;;13.80;8.13;;;;;;;-146.25;100.00;57403.91;4917129;29;20228;-85
2023/10/04 08:37:55;;;;;;;15.32;7.80;;;;;;;-146.25;100.00;57403.91;4923364;29;20613;-86
2023/10/04 08:40:27;;;;;;;18.92;8.55;;;;;;;-146.25;100.00;57403.91;4914427;29;20247;-85
2023/10/04 08:42:55;;;;;;;15.55;8.15;;;;;;;-146.25;100.00;57403.91;4914076;29;20223;-86
2023/10/04 08:45:24;;;;;;;11.82;8.20;;;;;;;-146.25;100.00;57403.91;4914682;29;20220;-86
2023/10/04 08:47:56;;;;;;;16.85;7.43;;;;;;;-146.25;100.00;57403.91;4914321;29;20725;-86
2023/10/04 08:50:33;;;;;;;12.38;8.55;;;;;;;-146.25;100.00;57403.91;4914216;29;20255;-85
2023/10/04 08:53:04;;;;;;;9.82;7.05;;;;;;;-146.25;100.00;57403.91;4914317;29;20712;-84
2023/10/04 08:55:39;;;;;;;23.00;9.38;;;;;;;-146.25;100.00;57403.91;4912295;29;20228;-85
2023/10/04 08:58:08;;;;;;;13.45;8.75;;;;;;;-146.25;100.00;57403.91;4913742;29;20235;-86
2023/10/04 09:00:37;;;;;;;11.93;8.38;;;;;;;-146.25;100.00;57403.91;4913759;29;20220;-86
2023/10/04 09:03:08;;;;;;;14.02;7.00;;;;;;;-146.25;100.00;57403.91;4914875;29;20224;-86
2023/10/04 09:05:38;;;;;;;15.65;8.27;;;;;;;-146.25;100.00;57403.91;4933117;29;20234;-85
2023/10/04 09:08:06;;;;;;;14.20;8.68;;;;;;;-146.25;100.00;57403.91;4934343;29;20231;-83
2023/10/04 09:10:39;;;;;;;18.63;8.43;;;;;;;-146.25;100.00;57403.91;4934199;29;20230;-85
2023/10/04 09:13:06;;;;;;;17.70;9.40;;;;;;;-146.25;100.00;57403.91;4934060;29;20275;-85
2023/10/04 09:15:34;;;;;;;11.25;8.20;;;;;;;-146.25;100.00;57403.91;4933109;29;20314;-85
2023/10/04 09:18:03;;;;;;;16.58;7.88;;;;;;;-146.25;100.00;57403.91;4932523;29;20310;-86
2023/10/04 09:20:32;;;;;;;12.90;8.15;;;;;;;-146.25;100.00;57403.91;4932525;29;20646;-84
2023/10/04 09:23:00;;;;;;;12.02;6.35;;;;;;;-146.25;100.00;57403.91;4932919;29;20683;-86
2023/10/04 09:25:37;;;;;;;13.07;7.53;;;;;;;-146.25;100.00;57403.91;4936593;29;20242;-85
2023/10/04 09:28:08;;;;;;;12.43;7.78;;;;;;;-146.25;100.00;57403.91;4936533;29;20223;-86
2023/10/04 09:30:36;;;;;;;14.23;7.97;;;;;;;-146.25;100.00;57403.91;4936792;29;20227;-85
2023/10/04 09:33:06;;;;;;;12.38;7.15;;;;;;;-146.25;100.00;57403.91;4935870;29;20229;-85
2023/10/04 09:35:43;;;;;;;14.15;7.47;;;;;;;-146.25;100.00;57403.91;4936264;29;20235;-85
2023/10/04 09:38:21;;;;;;;15.50;8.55;;;;;;;-146.25;100.00;57403.91;4936289;29;20294;-84
2023/10/04 09:41:01;;;;;;;12.98;7.35;;;;;;;-146.25;100.00;57403.91;4935675;29;20257;-86
2023/10/04 09:43:35;;;;;;;10.80;7.43;;;;;;;-146.25;100.00;57403.91;4936553;29;20313;-86
2023/10/04 09:46:04;;;;;;;12.98;8.02;;;;;;;-146.25;100.00;57403.91;4935390;29;20234;-86
2023/10/04 09:48:33;;;;;;;11.95;6.85;;;;;;;-146.25;100.00;57403.91;4936813;29;20582;-85
2023/10/04 09:51:01;;;;;;;17.33;8.05;;;;;;;-146.25;100.00;57403.91;4937489;29;20647;-86
2023/10/04 09:53:30;;;;;;;13.88;7.72;;;;;;;-146.25;100.00;57403.91;4937477;29;20247;-85
2023/10/04 09:56:01;;;;;;;9.65;7.15;;;;;;;-146.25;100.00;57403.91;4936887;29;20210;-85
2023/10/04 09:58:31;;;;;;;12.40;7.00;;;;;;;-146.25;100.00;57403.91;4937376;29;20219;-85
2023/10/04 10:01:09;;;;;;;14.18;7.90;;;;;;;-146.25;100.00;57403.91;4937164;29;20203;-85
2023/10/04 10:03:42;;;;;;;13.43;7.78;;;;;;;-146.25;100.00;57403.91;4937231;29;20647;-85
2023/10/04 10:06:13;;;;;;;13.18;7.60;;;;;;;-146.25;100.00;57403.91;4936967;29;20199;-86
2023/10/04 10:08:47;;;;;;;15.23;7.80;;;;;;;-146.25;100.00;57403.91;4950021;29;20206;-84
2023/10/04 10:11:25;;;;;;;10.48;6.47;;;;;;;-146.25;100.00;57403.91;4944739;29;20208;-84
2023/10/04 10:14:04;;;;;;;10.38;7.07;;;;;;;-146.25;100.00;57403.91;4937335;29;20669;-87
2023/10/04 10:16:33;;;;;;;10.93;7.65;;;;;;;-146.25;100.00;57403.91;4938277;29;20208;-86
2023/10/04 10:19:03;;;;;;;9.48;7.25;;;;;;;-146.25;100.00;57403.91;4938149;29;20251;-85
2023/10/04 10:22:05;;;;;;;16.35;7.30;;;;;;;-146.25;100.00;57403.91;4937975;29;20603;-85
2023/10/04 10:24:33;;;;;;;9.32;6.43;;;;;;;-146.25;100.00;57403.91;4937942;29;20207;-85
2023/10/04 10:27:09;;;;;;;11.00;6.70;;;;;;;-146.25;100.00;57403.91;4939983;29;20239;-85
2023/10/04 10:29:37;;;;;;;10.68;7.13;;;;;;;-146.25;100.00;57403.91;4954184;29;20187;-84
2023/10/04 10:32:14;;;;;;;8.98;6.85;;;;;;;-146.25;100.00;57403.91;4954188;29;20207;-84
2023/10/04 10:34:43;;;;;;;8.18;6.03;;;;;;;-146.25;100.00;57403.91;4954229;29;20214;-84
2023/10/04 10:37:16;;;;;;;12.85;6.28;;;;;;;-146.25;100.00;57403.91;4954063;29;20218;-85
2023/10/04 10:39:48;;;;;;;16.00;6.43;;;;;;;-146.25;100.00;57403.91;4954745;29;20192;-85
2023/10/04 10:42:17;;;;;;;9.55;6.50;;;;;;;-146.25;100.00;57403.91;4953311;29;20227;-84
2023/10/04 10:44:45;;;;;;;11.38;6.10;;;;;;;-146.25;100.00;57403.91;4954937;29;20219;-86
2023/10/04 10:47:18;;;;;;;9.38;5.53;;;;;;;-146.25;100.00;57403.91;4956304;29;20204;-85
2023/10/04 10:49:52;;;;;;;11.43;6.03;;;;;;;-146.25;100.00;57403.91;4954771;29;20215;-85
2023/10/04 10:52:27;;;;;;;7.20;5.72;;;;;;;-146.25;100.00;57403.91;4955264;29;20250;-84
2023/10/04 10:54:58;;;;;;;7.22;5.43;;;;;;;-146.25;100.00;57403.91;4950617;29;20587;-86
2023/10/04 10:57:29;;;;;;;10.43;5.35;;;;;;;-146.25;100.00;57403.91;4941794;29;20203;-85
2023/10/04 10:59:58;;;;;;;7.07;4.53;;;;;;;-146.25;100.00;57403.91;4938319;29;20235;-86
2023/10/04 11:02:27;;;;;;;10.95;4.18;;;;;;;-146.25;100.00;57403.91;4937680;29;20203;-85
2023/10/04 11:04:55;;;;;;;7.63;4.40;;;;;;;-146.25;100.00;57403.91;4937625;29;20239;-86
2023/10/04 11:07:29;;;;;;;9.35;5.10;;;;;;;-146.25;100.00;57403.91;4938744;29;20206;-86
2023/10/04 11:09:58;;;;;;;9.63;4.63;;;;;;;-146.25;100.00;57403.91;4938485;29;20203;-86
2023/10/04 11:12:27;;;;;;;5.15;4.53;;;;;;;-146.25;100.00;57403.91;4938770;29;20214;-86
2023/10/04 11:14:54;;;;;;;4.43;3.50;;;;;;;-146.25;100.00;57403.91;4936649;29;20233;-86
2023/10/04 11:17:22;;;;;;;4.70;3.75;;;;;;;-146.25;100.00;57403.91;4936125;29;20294;-85